Forside
METAR-TAF:

METAR-TAF

Lufthavne :

London Stansted Airport

London-Stansted, England

Breddekreds: 51-53N, længdekreds: 000-14E, højde: 106 m

Aktuelle vejr

Denne rapport blev lavet for 37 minutter siden, kl. 11:50 UTC
Vind 9 kt fra nordøst
Temperatur 8°C
Fugtighed 57%
Tryk 1032 hPa
Sigt 10 km eller mere
Brudte skyer i en højde af 4200 ft

METAR: EGSS 311150Z 04009KT 9999 BKN042 08/00 Q1032

Tid: 13:27 (12:27 UTC)

Vejrudsigter

Denne rapport blev lavet for 1 time og 25 minutter siden, kl. 11:02 UTC
Foreløbig gælder fra 31 på 12 UTC til 01 på 18 UTC
Vind 10 kt fra nordøst
Sigt 10 km eller mere
Spredte skyer i en højde af 3000 ft
ændring
fra 31 på 21 UTC til 31 på 24 UTC
Vind 3 kt fra varierende retninger
ændring
fra 01 på 11 UTC til 01 på 14 UTC
Vind 10 kt fra vestnordvest
Sandsynlighed 30%
fra 01 på 11 UTC til 01 på 17 UTC
Sigt: 8000 m
let regnbyger

TAF: EGSS 311102Z 3112/0118 04010KT 9999 SCT030 BECMG 3121/3124 VRB03KT BECMG 0111/0114 30010KT PROB30 0111/0117 8000 -SHRA

Vejrobservationer og prognoser fra mere end 4000 lufthavne (METAR og TAF).

De gule og røde prikker repræsenterer de meteorologiske stationer.

Flyt musen over at se navnet på stationen.

Så klik over at se vejr observationer og prognoser.

At skifte det kort: Klik på de grønne knapper med et sort kors for at zoome ind; på den grønne knap med en bindestreg for at zoome ud; eller på de grønne pile for tilstødende kort.


METAR-TAF: